Terminal Aerodrome Forecast
Issued by NWS Pittsburgh, PA

Current Version | Previous Version | Graphics & Text | Print | Product List | Glossary On
Versions: 1 2 3 4 5 6 7 8 9 10 11 12 13 14 15 16 17 18 19 20 21 22 23 24 25 26 27 28 29 30 31 32 33 34
480
FTUS41 KPBZ 272320
TAFPIT
TAF
KPIT 272320Z 2800/0106 15003KT P6SM OVC080
     FM280800 14003KT P6SM SCT050
     FM281200 16009KT P6SM OVC080
     FM281700 20012G18KT 5SM -RA OVC010
     FM010100 20012G18KT 6SM -RA OVC010=

USA.gov is the U.S. government's official web portal to all federal, state and local government web resources and services.